Time;durP1;ratioP1;P1;durP2;ratioP2;P2;SDS_P1;SDS_P2;PMS_P1;PMS_P2;Temp;Humidity;BMP_temperature;BMP_pressure;BME280_temperature;BME280_humidity;BME280_pressure;Samples;Min_cycle;Max_cycle;Signal;HPM_P1;HPM_P2
2021/12/02 00:01:58;;;;;;;13.48;1.75;;;6.60;99.90;;;;;;5091491;28;20028;-76
2021/12/02 00:04:23;;;;;;;12.57;1.65;;;6.70;99.90;;;;;;5092317;28;20115;-76
2021/12/02 00:06:49;;;;;;;18.60;1.92;;;6.70;99.90;;;;;;5091886;28;20020;-76
2021/12/02 00:09:14;;;;;;;10.88;1.35;;;6.70;99.90;;;;;;5089253;28;20024;-76
2021/12/02 00:11:40;;;;;;;9.23;1.30;;;6.70;99.90;;;;;;5091659;28;20032;-75
2021/12/02 00:14:10;;;;;;;4.47;0.95;;;6.60;99.90;;;;;;5091924;28;20047;-76
2021/12/02 00:16:41;;;;;;;9.13;0.88;;;6.50;99.90;;;;;;5091507;28;20482;-76
2021/12/02 00:21:54;;;;;;;7.60;1.23;;;6.40;99.90;;;;;;5091424;28;20063;-76
2021/12/02 00:24:24;;;;;;;3.28;0.70;;;6.30;99.90;;;;;;5091743;28;20020;-76
2021/12/02 00:26:51;;;;;;;7.60;1.10;;;6.30;99.90;;;;;;5091255;28;20065;-76
2021/12/02 00:29:20;;;;;;;8.25;0.90;;;6.30;99.90;;;;;;5091753;28;20028;-76
2021/12/02 00:31:47;;;;;;;10.18;1.02;;;6.30;99.90;;;;;;5111719;28;20458;-76
2021/12/02 00:34:14;;;;;;;8.20;1.10;;;6.30;99.90;;;;;;5095354;28;20055;-76
2021/12/02 00:36:40;;;;;;;7.75;1.20;;;6.20;99.90;;;;;;5092590;28;20024;-76
2021/12/02 00:39:14;;;;;;;4.22;1.08;;;6.20;99.90;;;;;;5092759;28;20064;-75
2021/12/02 00:41:40;;;;;;;10.30;1.13;;;6.20;99.90;;;;;;5098253;28;20494;-76
2021/12/02 00:44:06;;;;;;;7.55;1.20;;;6.20;99.90;;;;;;5111491;28;20032;-75
2021/12/02 00:46:33;;;;;;;9.30;1.25;;;6.30;99.90;;;;;;5100011;28;20058;-76
2021/12/02 00:49:03;;;;;;;14.73;1.30;;;6.30;99.90;;;;;;5091794;28;20475;-76
2021/12/02 00:51:34;;;;;;;13.60;1.80;;;6.30;99.90;;;;;;5074750;28;20031;-75
2021/12/02 00:54:03;;;;;;;7.07;1.20;;;6.30;99.90;;;;;;5077952;28;20077;-75
2021/12/02 00:56:29;;;;;;;14.48;1.65;;;6.30;99.90;;;;;;5098048;28;20028;-76
2021/12/02 00:58:55;;;;;;;9.73;1.67;;;6.40;99.90;;;;;;5103905;28;20028;-75
2021/12/02 01:01:24;;;;;;;9.60;1.40;;;6.40;99.90;;;;;;5109682;28;20022;-76
2021/12/02 01:03:53;;;;;;;9.88;1.40;;;6.40;99.90;;;;;;5109959;28;20035;-76
2021/12/02 01:06:19;;;;;;;13.60;1.52;;;6.40;99.90;;;;;;5090978;28;20554;-75
2021/12/02 01:08:44;;;;;;;9.75;1.10;;;6.40;99.90;;;;;;5091215;28;20103;-76
2021/12/02 01:11:10;;;;;;;9.43;1.40;;;6.50;99.90;;;;;;5091123;28;20035;-76
2021/12/02 01:13:36;;;;;;;10.63;1.30;;;6.50;99.90;;;;;;5105543;28;20035;-75
2021/12/02 01:16:02;;;;;;;10.57;1.35;;;6.50;99.90;;;;;;5070768;28;20032;-75
2021/12/02 01:18:28;;;;;;;8.25;1.40;;;6.50;99.90;;;;;;5088092;28;20073;-75
2021/12/02 01:20:54;;;;;;;10.20;1.73;;;6.40;99.90;;;;;;5098980;28;20051;-76
2021/12/02 01:23:21;;;;;;;11.85;1.33;;;6.40;99.90;;;;;;5110831;28;20024;-75
2021/12/02 01:25:53;;;;;;;8.75;1.15;;;6.40;99.90;;;;;;5111160;28;20289;-75
2021/12/02 01:28:21;;;;;;;8.23;1.25;;;6.30;99.90;;;;;;5107727;28;20063;-75
2021/12/02 01:30:47;;;;;;;12.13;1.40;;;6.30;99.90;;;;;;5093295;28;20080;-75
2021/12/02 01:33:15;;;;;;;8.93;1.50;;;6.30;99.90;;;;;;5090767;28;20020;-76
2021/12/02 01:35:45;;;;;;;7.07;1.10;;;6.20;99.90;;;;;;5090617;28;20032;-75
2021/12/02 01:38:10;;;;;;;8.93;1.02;;;6.30;99.90;;;;;;5090900;28;20471;-75
2021/12/02 01:40:37;;;;;;;9.18;1.13;;;6.30;99.90;;;;;;5090484;28;20032;-75
2021/12/02 01:43:04;;;;;;;6.47;1.20;;;6.30;99.90;;;;;;5106023;28;20020;-76
2021/12/02 01:45:30;;;;;;;5.97;1.20;;;6.30;99.90;;;;;;5108471;28;20023;-76
2021/12/02 01:47:57;;;;;;;8.93;1.00;;;6.30;99.90;;;;;;5106373;28;20020;-75
2021/12/02 01:50:25;;;;;;;13.25;1.63;;;6.30;99.90;;;;;;5098524;28;20020;-75
2021/12/02 01:53:00;;;;;;;14.48;1.50;;;6.30;99.90;;;;;;5093538;28;20032;-75
2021/12/02 01:55:27;;;;;;;6.97;1.17;;;6.30;99.90;;;;;;5110725;28;20077;-76
2021/12/02 01:57:59;;;;;;;5.07;0.90;;;6.40;99.90;;;;;;5111034;28;20367;-75
2021/12/02 02:00:28;;;;;;;8.00;1.85;;;6.40;99.90;;;;;;5099734;28;20028;-75
2021/12/02 02:02:54;;;;;;;11.68;1.23;;;6.40;99.90;;;;;;5101056;28;20114;-75
2021/12/02 02:05:20;;;;;;;9.27;1.08;;;6.40;99.90;;;;;;5105098;28;20115;-76
2021/12/02 02:07:52;;;;;;;10.02;1.10;;;6.50;99.90;;;;;;5104215;28;20028;-75
2021/12/02 02:10:18;;;;;;;8.32;1.00;;;6.50;99.90;;;;;;5101372;28;20490;-76
2021/12/02 02:12:44;;;;;;;11.00;1.50;;;6.50;99.90;;;;;;5089247;28;20082;-76
2021/12/02 02:15:10;;;;;;;14.40;1.40;;;6.50;99.90;;;;;;5093815;28;20090;-75
2021/12/02 02:17:44;;;;;;;9.68;0.93;;;6.50;99.90;;;;;;5095994;28;20032;-76
2021/12/02 02:20:12;;;;;;;2.85;0.50;;;6.40;99.90;;;;;;5107289;28;20043;-76
2021/12/02 02:22:39;;;;;;;6.30;0.63;;;6.30;99.90;;;;;;5097781;28;20036;-76
2021/12/02 02:25:11;;;;;;;2.47;0.50;;;6.20;99.90;;;;;;5108893;28;20019;-76
2021/12/02 02:27:37;;;;;;;4.70;0.60;;;6.10;99.90;;;;;;5114484;28;20031;-75
2021/12/02 02:30:04;;;;;;;4.07;0.73;;;6.00;99.90;;;;;;5104408;28;20060;-75
2021/12/02 02:32:32;;;;;;;5.95;0.60;;;5.90;99.90;;;;;;5100708;28;20232;-76
2021/12/02 02:34:58;;;;;;;4.65;0.63;;;5.90;99.90;;;;;;5104046;28;20058;-75
2021/12/02 02:37:24;;;;;;;3.78;0.88;;;5.90;99.90;;;;;;5107548;28;20091;-76
2021/12/02 02:39:49;;;;;;;5.60;0.98;;;5.90;99.90;;;;;;5101989;28;20024;-75
2021/12/02 02:42:15;;;;;;;6.43;1.23;;;5.90;99.90;;;;;;5091045;28;20045;-76
2021/12/02 02:44:41;;;;;;;9.15;1.23;;;5.90;99.90;;;;;;5112339;28;20016;-75
2021/12/02 02:47:06;;;;;;;6.60;1.10;;;5.90;99.90;;;;;;5112055;28;20036;-76
2021/12/02 02:49:32;;;;;;;5.47;0.82;;;5.90;99.90;;;;;;5106730;28;20021;-76
2021/12/02 02:51:57;;;;;;;4.63;0.70;;;5.90;99.90;;;;;;5097438;28;20058;-76
2021/12/02 02:54:23;;;;;;;6.68;0.60;;;5.90;99.90;;;;;;5103251;28;20024;-76
2021/12/02 02:57:05;;;;;;;5.00;0.65;;;5.90;99.90;;;;;;5112210;28;20024;-75
2021/12/02 02:59:56;;;;;;;6.07;0.75;;;5.90;99.90;;;;;;5097727;28;20027;-76
2021/12/02 03:02:41;;;;;;;10.25;0.88;;;5.80;99.90;;;;;;5085362;28;20039;-76
2021/12/02 03:05:24;;;;;;;6.75;0.90;;;5.80;99.90;;;;;;5113648;28;20140;-76
2021/12/02 03:07:55;;;;;;;4.07;0.65;;;5.70;99.90;;;;;;5109685;28;20379;-75
2021/12/02 03:10:38;;;;;;;8.95;1.10;;;5.70;99.90;;;;;;5112856;28;20446;-76
2021/12/02 03:13:34;;;;;;;8.82;1.08;;;5.70;99.90;;;;;;5113465;28;20104;-76
2021/12/02 03:18:43;;;;;;;7.13;0.75;;;5.70;99.90;;;;;;5096536;28;20035;-76
2021/12/02 03:21:23;;;;;;;5.03;0.68;;;5.70;99.90;;;;;;5094216;28;20340;-76
2021/12/02 03:23:53;;;;;;;4.15;0.63;;;5.70;99.90;;;;;;5093245;28;20024;-76
2021/12/02 03:26:18;;;;;;;3.20;0.70;;;5.70;99.90;;;;;;5092783;28;20047;-76
2021/12/02 03:28:50;;;;;;;2.92;0.60;;;5.60;99.90;;;;;;5093321;28;20024;-75
2021/12/02 03:31:17;;;;;;;6.15;0.65;;;5.50;99.90;;;;;;5100618;28;20043;-76
2021/12/02 03:33:43;;;;;;;8.30;0.90;;;5.40;99.90;;;;;;5112938;28;20027;-76
2021/12/02 03:36:10;;;;;;;6.75;0.85;;;5.30;99.90;;;;;;5111705;28;20088;-76
2021/12/02 03:38:36;;;;;;;3.20;0.73;;;5.30;99.90;;;;;;5095807;28;20024;-76
2021/12/02 03:41:02;;;;;;;5.93;1.02;;;5.20;99.90;;;;;;5101192;28;20115;-76
2021/12/02 03:43:37;;;;;;;6.03;1.00;;;5.20;99.90;;;;;;5107425;28;20023;-76
2021/12/02 03:46:04;;;;;;;6.32;0.90;;;5.20;99.90;;;;;;5109894;28;20033;-76
2021/12/02 03:48:30;;;;;;;8.15;1.00;;;5.10;99.90;;;;;;5101378;28;20088;-76
2021/12/02 03:50:58;;;;;;;7.95;1.13;;;5.10;99.90;;;;;;5104594;28;20028;-76
2021/12/02 03:53:23;;;;;;;6.97;0.98;;;5.20;99.90;;;;;;5093727;28;20031;-76
2021/12/02 03:55:49;;;;;;;2.72;0.75;;;5.20;99.90;;;;;;5107943;28;20546;-76
2021/12/02 03:58:14;;;;;;;8.25;1.20;;;5.20;99.90;;;;;;5092417;28;20024;-76
2021/12/02 04:00:40;;;;;;;5.70;1.00;;;5.30;99.90;;;;;;5099010;28;20495;-76
2021/12/02 04:03:06;;;;;;;3.58;0.90;;;5.30;99.90;;;;;;5112114;28;20085;-76
2021/12/02 04:05:32;;;;;;;12.65;1.10;;;5.30;99.90;;;;;;5106254;28;20027;-76
2021/12/02 04:07:57;;;;;;;10.07;1.05;;;5.30;99.90;;;;;;5092362;28;20425;-76
2021/12/02 04:10:24;;;;;;;5.90;0.90;;;5.40;99.90;;;;;;5103785;28;20081;-76
2021/12/02 04:15:43;;;;;;;6.20;1.15;;;5.50;99.90;;;;;;5106225;28;20105;-76
2021/12/02 04:18:09;;;;;;;8.10;0.80;;;5.50;99.90;;;;;;5092561;28;20058;-76
2021/12/02 04:20:37;;;;;;;5.38;0.70;;;5.50;99.90;;;;;;5090393;28;20127;-76
2021/12/02 04:23:03;;;;;;;1.98;0.50;;;5.40;99.90;;;;;;5102859;28;20016;-76
2021/12/02 04:25:28;;;;;;;4.50;0.70;;;5.30;99.90;;;;;;5111630;28;20081;-76
2021/12/02 04:27:55;;;;;;;3.90;0.38;;;5.10;99.90;;;;;;5105183;28;20027;-76
2021/12/02 04:30:23;;;;;;;0.75;0.30;;;4.90;99.90;;;;;;5092630;28;20032;-75
2021/12/02 04:32:49;;;;;;;1.02;0.40;;;4.80;99.90;;;;;;5091764;28;20459;-76
2021/12/02 04:35:16;;;;;;;1.90;0.40;;;4.80;99.90;;;;;;5105037;28;20027;-76
2021/12/02 04:37:45;;;;;;;3.38;0.40;;;4.80;99.90;;;;;;5111642;28;20089;-76
2021/12/02 04:40:16;;;;;;;1.00;0.43;;;4.70;99.90;;;;;;5100026;28;20032;-76
2021/12/02 04:42:42;;;;;;;3.35;0.57;;;4.80;99.90;;;;;;5090618;28;20016;-76
2021/12/02 04:45:09;;;;;;;6.43;0.70;;;4.70;99.90;;;;;;5104184;28;20031;-75
2021/12/02 04:47:34;;;;;;;7.30;0.65;;;4.70;99.90;;;;;;5092227;28;20544;-75
2021/12/02 04:50:00;;;;;;;3.10;0.68;;;4.70;99.90;;;;;;5103002;28;20027;-76
2021/12/02 04:52:25;;;;;;;4.55;0.80;;;4.70;99.90;;;;;;5091230;28;20518;-76
2021/12/02 04:54:51;;;;;;;5.88;0.55;;;4.70;99.90;;;;;;5106654;28;20375;-76
2021/12/02 04:57:17;;;;;;;5.68;0.75;;;4.70;99.90;;;;;;5090967;28;20072;-76
2021/12/02 04:59:42;;;;;;;3.55;0.82;;;4.70;99.90;;;;;;5091517;28;20035;-76
2021/12/02 05:02:08;;;;;;;9.52;1.10;;;4.70;99.90;;;;;;5098912;28;20474;-76
2021/12/02 05:04:33;;;;;;;8.05;0.80;;;4.80;99.90;;;;;;5111310;28;20031;-76
2021/12/02 05:06:59;;;;;;;5.80;0.93;;;4.80;99.90;;;;;;5110967;28;20821;-76
2021/12/02 05:09:25;;;;;;;4.57;1.10;;;4.80;99.90;;;;;;5108669;28;20102;-76
2021/12/02 05:11:50;;;;;;;8.32;1.20;;;4.90;99.90;;;;;;5102062;28;20437;-76
2021/12/02 05:14:16;;;;;;;5.43;1.00;;;4.90;99.90;;;;;;5085084;28;20098;-76
2021/12/02 05:16:41;;;;;;;8.15;1.20;;;5.00;99.90;;;;;;5106973;28;20020;-76
2021/12/02 05:19:07;;;;;;;12.38;1.52;;;5.10;99.90;;;;;;5104002;28;20024;-75
2021/12/02 05:21:32;;;;;;;9.18;1.38;;;5.10;99.90;;;;;;5109609;28;20496;-75
2021/12/02 05:23:58;;;;;;;12.07;1.98;;;5.20;99.90;;;;;;5109049;28;20024;-75
2021/12/02 05:26:25;;;;;;;12.90;2.58;;;5.30;99.90;;;;;;5111570;28;20032;-76
2021/12/02 05:28:51;;;;;;;11.25;2.25;;;5.40;99.90;;;;;;5089258;28;20028;-74
2021/12/02 05:31:17;;;;;;;14.25;1.90;;;5.40;99.90;;;;;;5085020;28;20494;-75
2021/12/02 05:33:43;;;;;;;11.80;1.48;;;5.50;99.90;;;;;;5090845;28;20024;-74
2021/12/02 05:36:09;;;;;;;16.65;2.05;;;5.60;99.90;;;;;;5090448;28;20078;-75
2021/12/02 05:38:35;;;;;;;11.88;1.50;;;5.60;99.90;;;;;;5090487;28;20028;-75
2021/12/02 05:41:01;;;;;;;9.02;1.42;;;5.60;99.90;;;;;;5090829;28;20028;-75
2021/12/02 05:43:27;;;;;;;10.40;1.83;;;5.60;99.90;;;;;;5090456;28;20026;-75
2021/12/02 05:45:52;;;;;;;11.77;1.63;;;5.70;99.90;;;;;;5090626;28;20020;-75
2021/12/02 05:48:18;;;;;;;11.73;1.08;;;5.70;99.90;;;;;;5085463;28;20348;-74
2021/12/02 05:50:44;;;;;;;2.63;0.70;;;5.70;99.90;;;;;;5073056;28;20103;-75
2021/12/02 05:53:09;;;;;;;5.60;1.23;;;5.70;99.90;;;;;;5092339;28;20051;-75
2021/12/02 05:55:35;;;;;;;5.00;0.90;;;5.60;99.90;;;;;;5094614;28;20028;-75
2021/12/02 05:58:00;;;;;;;11.80;1.50;;;5.60;99.90;;;;;;5094645;28;20029;-74
2021/12/02 06:00:26;;;;;;;8.52;1.48;;;5.60;99.90;;;;;;5094546;28;20074;-75
2021/12/02 06:02:52;;;;;;;14.88;1.70;;;5.60;99.90;;;;;;5087435;28;20016;-75
2021/12/02 06:05:20;;;;;;;14.43;1.90;;;5.60;99.90;;;;;;5074237;28;20036;-75
2021/12/02 06:07:50;;;;;;;14.50;2.08;;;5.50;99.90;;;;;;5074221;28;20726;-75
2021/12/02 06:10:17;;;;;;;11.88;1.35;;;5.40;99.90;;;;;;5075173;28;20032;-75
2021/12/02 06:12:43;;;;;;;13.02;1.58;;;5.30;99.90;;;;;;5076044;28;20100;-75
2021/12/02 06:15:09;;;;;;;12.27;1.50;;;5.30;99.90;;;;;;5097318;28;20032;-75
2021/12/02 06:17:36;;;;;;;7.22;1.40;;;5.30;99.90;;;;;;5091423;28;20017;-76
2021/12/02 06:20:03;;;;;;;5.53;1.20;;;5.20;99.90;;;;;;5092154;28;20040;-75
2021/12/02 06:22:29;;;;;;;7.00;1.10;;;5.20;99.90;;;;;;5097154;28;20581;-75
2021/12/02 06:25:16;;;;;;;9.95;0.82;;;5.10;99.90;;;;;;5097674;28;20035;-76
2021/12/02 06:27:45;;;;;;;;;;;5.10;99.90;;;;;;5093220;28;20036;-76
2021/12/02 06:30:12;;;;;;;2.72;0.90;;;5.00;99.90;;;;;;5093472;28;19904;-75
2021/12/02 06:32:38;;;;;;;7.10;0.98;;;4.90;99.90;;;;;;5093633;28;20057;-76
2021/12/02 06:35:04;;;;;;;4.25;0.70;;;4.80;99.90;;;;;;5093596;28;20032;-75
2021/12/02 06:37:30;;;;;;;4.18;0.70;;;4.80;99.90;;;;;;5093349;28;20132;-75
2021/12/02 06:39:55;;;;;;;5.28;0.90;;;4.80;99.90;;;;;;5093608;28;20099;-75
2021/12/02 06:42:21;;;;;;;6.88;0.80;;;4.80;99.90;;;;;;5093763;28;20056;-76
2021/12/02 06:44:46;;;;;;;8.00;1.15;;;4.80;99.90;;;;;;5093500;28;20066;-75
2021/12/02 06:47:12;;;;;;;4.88;0.88;;;4.70;99.90;;;;;;5091577;28;20024;-76
2021/12/02 06:49:39;;;;;;;8.63;1.15;;;4.80;99.90;;;;;;5093157;28;20026;-75
2021/12/02 06:52:10;;;;;;;8.68;1.70;;;4.70;99.90;;;;;;5093358;28;20020;-74
2021/12/02 06:54:36;;;;;;;5.28;0.95;;;4.80;99.90;;;;;;5093607;28;20115;-74
2021/12/02 06:57:02;;;;;;;8.15;1.27;;;4.80;99.90;;;;;;5090029;28;20102;-76
2021/12/02 06:59:27;;;;;;;13.60;1.20;;;4.80;99.90;;;;;;5076569;28;20027;-75
2021/12/02 07:01:53;;;;;;;11.05;1.38;;;4.80;99.90;;;;;;5092193;28;20032;-75
2021/12/02 07:04:19;;;;;;;7.32;1.30;;;4.90;99.90;;;;;;5092097;28;20024;-74
2021/12/02 07:06:44;;;;;;;7.00;1.40;;;4.90;99.90;;;;;;5087013;28;20189;-75
2021/12/02 07:09:10;;;;;;;8.75;1.42;;;4.90;99.90;;;;;;5092811;28;20601;-75
2021/12/02 07:11:36;;;;;;;7.18;1.35;;;5.00;99.90;;;;;;5087249;28;20032;-75
2021/12/02 07:14:13;;;;;;;5.90;1.02;;;5.00;99.90;;;;;;5074289;28;20019;-75
2021/12/02 07:16:39;;;;;;;7.18;1.15;;;5.00;99.90;;;;;;5082894;28;20085;-75
2021/12/02 07:19:09;;;;;;;4.18;1.00;;;4.90;99.90;;;;;;5072211;28;20107;-75
2021/12/02 07:21:37;;;;;;;6.72;1.00;;;4.90;99.90;;;;;;5083456;28;20043;-75
2021/12/02 07:24:13;;;;;;;9.32;1.58;;;4.90;99.90;;;;;;5092742;28;20020;-75
2021/12/02 07:26:41;;;;;;;7.55;1.30;;;4.90;99.90;;;;;;5093069;28;20020;-75
2021/12/02 07:29:14;;;;;;;9.10;1.00;;;4.90;99.90;;;;;;5091528;28;20031;-75
2021/12/02 07:31:41;;;;;;;8.82;1.23;;;4.90;99.90;;;;;;5092848;28;20032;-75
2021/12/02 07:34:07;;;;;;;9.13;1.30;;;4.90;99.90;;;;;;5092505;28;20020;-75
2021/12/02 07:36:33;;;;;;;10.55;1.45;;;4.90;99.90;;;;;;5086866;28;20052;-75
2021/12/02 07:39:01;;;;;;;7.35;1.50;;;4.90;99.90;;;;;;5073301;28;20036;-75
2021/12/02 07:41:27;;;;;;;14.65;1.42;;;5.00;99.90;;;;;;5075494;28;20386;-75
2021/12/02 07:43:54;;;;;;;8.77;1.08;;;5.00;99.90;;;;;;5077208;28;20506;-76
2021/12/02 07:46:19;;;;;;;7.97;1.27;;;5.00;99.90;;;;;;5081389;28;20036;-75
2021/12/02 07:48:45;;;;;;;7.93;0.90;;;5.00;99.90;;;;;;5078452;28;20023;-75
2021/12/02 07:51:15;;;;;;;4.93;0.95;;;5.00;99.90;;;;;;5075654;28;20426;-75
2021/12/02 07:53:45;;;;;;;4.53;0.70;;;4.90;99.90;;;;;;5084496;28;20047;-76
2021/12/02 07:56:14;;;;;;;2.78;0.65;;;4.80;99.90;;;;;;5086527;28;20410;-75
2021/12/02 07:58:43;;;;;;;6.35;0.77;;;4.80;99.90;;;;;;5082839;28;20012;-75
2021/12/02 08:01:09;;;;;;;8.05;0.90;;;4.80;99.90;;;;;;5087961;28;20020;-75
2021/12/02 08:03:35;;;;;;;4.22;0.73;;;4.80;99.90;;;;;;5090243;28;20028;-75
2021/12/02 08:06:01;;;;;;;2.45;0.70;;;4.70;99.90;;;;;;5086463;28;20020;-75
2021/12/02 08:08:27;;;;;;;5.95;0.90;;;4.70;99.90;;;;;;5072862;28;20064;-75
2021/12/02 08:10:52;;;;;;;4.32;0.60;;;4.70;99.90;;;;;;5072967;28;20150;-75
2021/12/02 08:13:19;;;;;;;4.68;0.80;;;4.60;99.90;;;;;;5082915;28;20027;-75
2021/12/02 08:15:45;;;;;;;3.58;0.68;;;4.60;99.90;;;;;;5088756;28;20039;-75
2021/12/02 08:18:11;;;;;;;6.35;0.80;;;4.60;99.90;;;;;;5073528;28;20020;-75
2021/12/02 08:20:36;;;;;;;3.38;0.70;;;4.60;99.90;;;;;;5072958;28;20052;-75
2021/12/02 08:23:03;;;;;;;3.20;0.70;;;4.60;99.90;;;;;;5079336;28;20587;-75
2021/12/02 08:25:31;;;;;;;2.13;0.80;;;4.60;99.90;;;;;;5073692;28;20108;-75
2021/12/02 08:28:02;;;;;;;6.63;0.88;;;4.50;99.90;;;;;;5080213;28;20499;-76
2021/12/02 08:30:29;;;;;;;7.15;1.17;;;4.60;99.90;;;;;;5077131;28;20050;-74
2021/12/02 08:32:55;;;;;;;4.78;0.80;;;4.60;99.90;;;;;;5077577;28;20099;-75
2021/12/02 08:35:22;;;;;;;6.47;0.90;;;4.60;99.90;;;;;;5075100;28;20024;-75
2021/12/02 08:37:49;;;;;;;11.82;1.17;;;4.60;99.90;;;;;;5080392;28;20336;-74
2021/12/02 08:40:18;;;;;;;5.07;0.93;;;4.60;99.90;;;;;;5077329;28;20025;-74
2021/12/02 08:42:45;;;;;;;3.97;0.70;;;4.60;99.90;;;;;;5078425;28;20025;-75
2021/12/02 08:45:11;;;;;;;6.65;1.60;;;4.60;99.90;;;;;;5089382;28;20016;-74
2021/12/02 08:47:43;;;;;;;6.25;1.10;;;4.60;99.90;;;;;;5086022;28;20126;-75
2021/12/02 08:50:13;;;;;;;11.35;1.05;;;4.60;99.90;;;;;;5081299;28;20230;-75
2021/12/02 08:52:39;;;;;;;7.38;0.88;;;4.60;99.90;;;;;;5073706;28;20474;-74
2021/12/02 08:55:06;;;;;;;9.68;0.90;;;4.70;99.90;;;;;;5075236;28;20017;-74
2021/12/02 08:57:31;;;;;;;6.82;0.85;;;4.70;99.90;;;;;;5084845;28;20074;-74
2021/12/02 08:59:57;;;;;;;5.45;0.85;;;4.80;99.90;;;;;;5077731;28;20473;-75
2021/12/02 09:02:22;;;;;;;4.28;0.63;;;4.80;99.90;;;;;;5077939;28;20055;-75
2021/12/02 09:04:48;;;;;;;5.85;0.88;;;4.90;99.90;;;;;;5074724;28;20024;-75
2021/12/02 09:07:15;;;;;;;3.90;0.73;;;4.90;99.90;;;;;;5074717;28;20096;-75
2021/12/02 09:09:40;;;;;;;3.30;0.98;;;5.00;99.90;;;;;;5083474;28;20466;-75
2021/12/02 09:12:08;;;;;;;5.38;0.90;;;5.00;99.90;;;;;;5072995;28;20028;-75
2021/12/02 09:14:34;;;;;;;4.50;1.05;;;5.10;99.90;;;;;;5073086;28;20500;-75
2021/12/02 09:17:02;;;;;;;4.25;0.82;;;5.20;99.90;;;;;;5081289;28;20020;-75
2021/12/02 09:19:27;;;;;;;3.97;0.60;;;5.30;99.90;;;;;;5082237;28;20048;-75
2021/12/02 09:21:53;;;;;;;7.70;0.70;;;5.30;99.90;;;;;;5073571;28;20047;-74
2021/12/02 09:24:18;;;;;;;4.90;0.73;;;5.40;99.90;;;;;;5075778;28;20024;-75
2021/12/02 09:26:53;;;;;;;5.32;1.00;;;5.50;99.90;;;;;;5073386;28;20025;-75
2021/12/02 09:29:20;;;;;;;;;;;5.60;99.90;;;;;;5073147;28;20483;-75
2021/12/02 09:31:46;;;;;;;4.80;0.52;;;5.70;99.90;;;;;;5074267;28;19957;-75
2021/12/02 09:34:12;;;;;;;4.85;0.63;;;5.80;99.90;;;;;;5071525;28;20056;-75
2021/12/02 09:36:38;;;;;;;4.63;0.60;;;5.90;99.90;;;;;;5073185;28;20540;-75
2021/12/02 09:39:06;;;;;;;5.28;1.00;;;5.90;99.90;;;;;;5071179;28;20052;-75
2021/12/02 09:41:32;;;;;;;4.18;0.63;;;6.00;99.90;;;;;;5070592;28;20039;-75
2021/12/02 09:43:58;;;;;;;3.75;0.98;;;6.00;99.90;;;;;;5070577;28;20016;-74
2021/12/02 09:46:24;;;;;;;2.63;0.73;;;5.90;99.90;;;;;;5075177;28;20078;-74
2021/12/02 09:48:51;;;;;;;2.97;0.80;;;5.90;99.90;;;;;;5076174;28;20046;-75
2021/12/02 09:51:24;;;;;;;4.13;0.82;;;5.90;99.90;;;;;;5076261;28;20495;-75
2021/12/02 09:53:58;;;;;;;8.90;1.00;;;5.90;99.90;;;;;;5071560;28;20036;-74
2021/12/02 09:56:29;;;;;;;2.72;0.85;;;5.90;99.90;;;;;;5077540;28;20028;-74
2021/12/02 09:59:01;;;;;;;5.07;0.98;;;5.80;99.90;;;;;;5089328;28;20119;-75
2021/12/02 10:01:50;;;;;;;3.30;0.70;;;5.90;99.90;;;;;;5090421;28;20513;-75
2021/12/02 10:04:15;;;;;;;2.92;0.73;;;5.90;99.90;;;;;;5090099;28;20063;-75
2021/12/02 10:06:42;;;;;;;5.60;0.80;;;6.10;99.90;;;;;;5090349;28;20063;-75
2021/12/02 10:09:24;;;;;;;4.70;0.88;;;6.20;99.90;;;;;;5078335;28;20024;-75
2021/12/02 10:14:27;;;;;;;6.78;0.73;;;6.40;99.90;;;;;;5090085;28;20051;-75
2021/12/02 10:17:33;;;;;;;7.85;0.98;;;6.50;99.90;;;;;;5079280;28;20483;-75
2021/12/02 10:20:27;;;;;;;1.73;0.60;;;6.60;99.90;;;;;;5089927;28;20378;-76
2021/12/02 10:23:26;;;;;;;4.00;0.90;;;6.50;99.90;;;;;;5090425;28;20387;-75
2021/12/02 10:26:00;;;;;;;6.57;1.00;;;6.50;99.90;;;;;;5089963;28;20025;-75
2021/12/02 10:28:28;;;;;;;6.75;0.98;;;6.40;99.90;;;;;;5090012;28;20530;-75
2021/12/02 10:31:00;;;;;;;7.53;1.00;;;6.30;99.90;;;;;;5088749;28;20034;-76
2021/12/02 10:33:47;;;;;;;3.05;0.60;;;6.20;99.90;;;;;;5075747;28;20077;-75
2021/12/02 10:36:27;;;;;;;6.32;1.20;;;6.10;99.90;;;;;;5090311;28;20028;-76
2021/12/02 10:38:54;;;;;;;2.10;0.60;;;6.00;99.90;;;;;;5090323;28;20026;-75
2021/12/02 10:41:26;;;;;;;3.90;0.82;;;6.00;99.90;;;;;;5090917;28;20032;-75
2021/12/02 10:44:10;;;;;;;1.85;0.80;;;5.90;99.90;;;;;;5085516;28;20123;-75
2021/12/02 10:46:38;;;;;;;4.60;0.80;;;5.80;99.90;;;;;;5084480;28;20850;-75
2021/12/02 10:49:11;;;;;;;3.30;0.70;;;5.80;99.90;;;;;;5090644;28;20023;-76
2021/12/02 10:51:43;;;;;;;2.83;0.57;;;5.60;99.90;;;;;;5089100;28;20115;-76
2021/12/02 10:54:15;;;;;;;3.83;0.50;;;5.40;99.90;;;;;;5091900;28;20064;-76
2021/12/02 10:56:46;;;;;;;2.67;0.60;;;5.10;99.90;;;;;;5093596;28;20452;-77
2021/12/02 10:59:34;;;;;;;2.90;0.70;;;4.90;99.90;;;;;;5084171;28;20101;-77
2021/12/02 11:02:04;;;;;;;3.60;0.60;;;4.80;99.90;;;;;;5070461;28;20082;-77
2021/12/02 11:04:42;;;;;;;2.53;0.68;;;4.70;99.90;;;;;;5092194;28;20398;-77
2021/12/02 11:07:18;;;;;;;3.67;0.60;;;4.60;99.90;;;;;;5078418;28;20549;-77
2021/12/02 11:09:43;;;;;;;3.03;0.80;;;4.60;99.90;;;;;;5073507;28;20478;-77
2021/12/02 11:12:24;;;;;;;1.73;0.40;;;4.60;99.90;;;;;;5093855;28;20107;-77
2021/12/02 11:14:58;;;;;;;2.28;0.70;;;4.60;99.90;;;;;;5074867;28;20043;-77
2021/12/02 11:17:29;;;;;;;5.13;0.80;;;4.60;99.90;;;;;;5074622;28;20036;-77
2021/12/02 11:19:56;;;;;;;2.95;0.60;;;4.50;99.90;;;;;;5093022;28;20074;-77
2021/12/02 11:22:22;;;;;;;1.25;0.45;;;4.60;99.90;;;;;;5094128;28;20123;-77
2021/12/02 11:24:49;;;;;;;6.75;0.55;;;4.60;99.90;;;;;;5094323;28;20091;-77
2021/12/02 11:27:22;;;;;;;5.15;1.00;;;4.60;99.90;;;;;;5092894;28;20032;-77
2021/12/02 11:30:04;;;;;;;2.42;0.60;;;4.70;99.90;;;;;;5094184;28;20024;-76
2021/12/02 11:32:49;;;;;;;1.13;0.50;;;4.70;99.90;;;;;;5094085;28;20032;-77
2021/12/02 11:35:22;;;;;;;1.60;0.63;;;4.80;99.90;;;;;;5094080;28;20031;-77
2021/12/02 11:37:54;;;;;;;3.05;0.60;;;4.80;99.90;;;;;;5094068;28;20032;-77
2021/12/02 11:40:23;;;;;;;3.90;0.90;;;4.80;99.90;;;;;;5093755;28;20099;-77
2021/12/02 11:42:50;;;;;;;2.00;0.57;;;4.80;99.90;;;;;;5089119;28;20028;-76
2021/12/02 11:45:19;;;;;;;5.28;0.85;;;4.80;99.90;;;;;;5075380;28;20383;-77
2021/12/02 11:47:47;;;;;;;3.63;1.10;;;4.90;99.90;;;;;;5094038;28;20020;-77
2021/12/02 11:50:14;;;;;;;2.10;0.88;;;4.90;99.90;;;;;;5092654;28;20032;-77
2021/12/02 11:52:41;;;;;;;5.72;1.02;;;4.90;99.90;;;;;;5073863;28;20487;-77
2021/12/02 11:55:15;;;;;;;5.93;1.00;;;4.80;99.90;;;;;;5076403;28;20031;-77
2021/12/02 11:57:41;;;;;;;5.25;0.70;;;4.80;99.90;;;;;;5074467;28;20356;-77
2021/12/02 12:00:10;;;;;;;3.53;0.65;;;4.90;99.90;;;;;;5076230;28;20073;-77
2021/12/02 12:02:39;;;;;;;2.17;0.73;;;4.80;99.90;;;;;;5081731;28;20027;-76
2021/12/02 12:05:06;;;;;;;3.33;0.55;;;4.90;99.90;;;;;;5078217;28;20063;-77
2021/12/02 12:07:46;;;;;;;4.40;0.95;;;4.90;99.90;;;;;;5079404;28;20220;-76
2021/12/02 12:10:25;;;;;;;2.03;0.70;;;4.90;99.90;;;;;;5085798;28;20386;-77
2021/12/02 12:12:53;;;;;;;2.60;0.60;;;5.00;99.90;;;;;;5087571;28;20536;-76
2021/12/02 12:15:33;;;;;;;3.22;0.80;;;5.20;99.90;;;;;;5087124;28;20093;-77
2021/12/02 12:18:00;;;;;;;2.38;0.82;;;5.30;99.90;;;;;;5095153;28;20038;-76
2021/12/02 12:21:00;;;;;;;3.50;0.80;;;5.40;99.90;;;;;;5087271;28;20109;-76
2021/12/02 12:23:40;;;;;;;3.33;0.95;;;5.50;99.90;;;;;;5057188;28;20032;-76
2021/12/02 12:26:34;;;;;;;6.57;0.90;;;5.50;99.90;;;;;;5055375;28;20120;-75
2021/12/02 12:29:09;;;;;;;8.02;1.30;;;5.60;99.90;;;;;;5053433;28;20036;-75
2021/12/02 12:32:03;;;;;;;7.63;1.15;;;5.60;99.90;;;;;;5050332;28;20037;-75
2021/12/02 12:34:30;;;;;;;8.30;1.45;;;5.70;99.90;;;;;;5049680;28;20051;-76
2021/12/02 12:36:57;;;;;;;6.97;1.55;;;5.80;99.90;;;;;;5052180;28;20036;-77
2021/12/02 12:39:28;;;;;;;5.82;1.20;;;5.90;99.90;;;;;;5052703;28;20041;-77
2021/12/02 12:42:13;;;;;;;12.27;2.30;;;5.90;99.90;;;;;;5054575;28;20380;-76
2021/12/02 12:44:49;;;;;;;7.88;0.90;;;6.00;99.90;;;;;;5049016;28;20028;-76
2021/12/02 12:47:16;;;;;;;4.47;1.00;;;6.00;99.90;;;;;;5054722;28;20037;-75
2021/12/02 12:49:42;;;;;;;7.25;1.10;;;6.00;99.90;;;;;;5050387;28;20053;-76
2021/12/02 12:52:19;;;;;;;6.63;1.05;;;6.00;99.90;;;;;;5019437;28;20033;-76
2021/12/02 12:55:16;;;;;;;11.18;1.20;;;6.10;99.90;;;;;;5053034;28;20120;-75
2021/12/02 12:58:08;;;;;;;12.52;1.30;;;6.10;99.90;;;;;;5049503;28;20035;-77
2021/12/02 13:00:39;;;;;;;9.65;1.40;;;6.20;99.90;;;;;;5078320;28;20028;-76
2021/12/02 13:03:15;;;;;;;9.45;1.30;;;6.30;99.90;;;;;;5079649;28;20032;-76
2021/12/02 13:05:51;;;;;;;8.23;1.33;;;6.50;99.90;;;;;;5077563;28;20088;-76
2021/12/02 13:08:30;;;;;;;9.40;1.63;;;6.60;99.90;;;;;;5075419;28;20040;-75
2021/12/02 13:10:58;;;;;;;5.80;1.05;;;6.80;99.90;;;;;;5088902;28;20028;-76
2021/12/02 13:13:32;;;;;;;12.38;1.10;;;6.90;99.90;;;;;;5094791;28;20086;-75
2021/12/02 13:16:14;;;;;;;5.60;1.10;;;7.00;99.90;;;;;;5094008;28;20070;-76
2021/12/02 13:18:42;;;;;;;4.47;0.95;;;7.10;99.90;;;;;;5095783;28;20032;-75